createdAt,value
2024-01-27T00:00:59.239Z,100.00
2024-01-27T00:03:26.562Z,100.00
2024-01-27T00:05:54.279Z,100.00
2024-01-27T00:08:22.747Z,100.00
2024-01-27T00:10:50.163Z,100.00
2024-01-27T00:13:17.430Z,100.00
2024-01-27T00:15:44.777Z,100.00
2024-01-27T00:18:12.486Z,100.00
2024-01-27T00:20:40.044Z,100.00
2024-01-27T00:23:07.288Z,100.00
2024-01-27T00:25:34.717Z,100.00
2024-01-27T00:28:01.971Z,100.00
2024-01-27T00:30:29.475Z,100.00
2024-01-27T00:32:56.905Z,100.00
2024-01-27T00:35:25.415Z,100.00
2024-01-27T00:37:52.788Z,100.00
2024-01-27T00:40:20.410Z,100.00
2024-01-27T00:42:47.681Z,100.00
2024-01-27T00:45:15.308Z,100.00
2024-01-27T00:47:42.647Z,100.00
2024-01-27T00:50:10.457Z,100.00
2024-01-27T00:52:37.862Z,100.00
2024-01-27T00:55:05.787Z,100.00
2024-01-27T00:57:33.168Z,100.00
2024-01-27T01:00:00.657Z,100.00
2024-01-27T01:02:28.238Z,100.00
2024-01-27T01:04:55.601Z,100.00
2024-01-27T01:07:22.804Z,100.00
2024-01-27T01:09:50.398Z,100.00
2024-01-27T01:12:17.753Z,100.00
2024-01-27T01:14:45.427Z,100.00
2024-01-27T01:17:14.206Z,100.00
2024-01-27T01:19:43.818Z,100.00
2024-01-27T01:22:13.469Z,100.00
2024-01-27T01:24:41.203Z,100.00
2024-01-27T01:27:08.576Z,100.00
2024-01-27T01:29:36.491Z,100.00
2024-01-27T01:32:04.229Z,100.00
2024-01-27T01:34:33.229Z,100.00
2024-01-27T01:37:00.564Z,100.00
2024-01-27T01:39:28.098Z,100.00
2024-01-27T01:41:55.522Z,100.00
2024-01-27T01:44:23.116Z,100.00
2024-01-27T01:46:50.611Z,100.00
2024-01-27T01:49:18.027Z,100.00
2024-01-27T01:51:45.550Z,100.00
2024-01-27T01:54:22.573Z,100.00
2024-01-27T01:56:50.548Z,100.00
2024-01-27T01:59:17.886Z,100.00
2024-01-27T02:01:46.658Z,100.00
2024-01-27T02:04:14.121Z,100.00
2024-01-27T02:06:41.770Z,100.00
2024-01-27T02:09:09.077Z,100.00
2024-01-27T02:11:36.678Z,100.00
2024-01-27T02:14:03.909Z,100.00
2024-01-27T02:16:31.277Z,100.00
2024-01-27T02:18:58.817Z,100.00
2024-01-27T02:21:26.343Z,100.00
2024-01-27T02:23:53.664Z,100.00
2024-01-27T02:26:21.169Z,100.00
2024-01-27T02:28:48.401Z,100.00
2024-01-27T02:31:16.268Z,100.00
2024-01-27T02:33:43.595Z,100.00
2024-01-27T02:36:11.320Z,100.00
2024-01-27T02:38:38.663Z,100.00
2024-01-27T02:41:06.146Z,100.00
2024-01-27T02:43:33.542Z,100.00
2024-01-27T02:46:00.896Z,100.00
2024-01-27T02:48:28.268Z,100.00
2024-01-27T02:50:55.728Z,100.00
2024-01-27T02:53:23.152Z,100.00
2024-01-27T02:55:51.917Z,100.00
2024-01-27T02:58:20.666Z,100.00
2024-01-27T03:00:48.174Z,100.00
2024-01-27T03:03:16.517Z,100.00
2024-01-27T03:05:44.219Z,100.00
2024-01-27T03:08:11.587Z,100.00
2024-01-27T03:10:39.050Z,100.00
2024-01-27T03:13:06.291Z,100.00
2024-01-27T03:15:33.562Z,100.00
2024-01-27T03:18:00.975Z,100.00
2024-01-27T03:20:29.123Z,100.00
2024-01-27T03:22:56.567Z,100.00
2024-01-27T03:25:26.920Z,100.00
2024-01-27T03:27:54.291Z,100.00
2024-01-27T03:30:21.572Z,100.00
2024-01-27T03:32:49.882Z,100.00
2024-01-27T03:35:17.319Z,100.00
2024-01-27T03:37:45.889Z,100.00
2024-01-27T03:40:13.628Z,100.00
2024-01-27T03:42:41.006Z,100.00
2024-01-27T03:45:08.632Z,100.00
2024-01-27T03:47:36.011Z,100.00
2024-01-27T03:50:03.558Z,100.00
2024-01-27T03:52:31.056Z,100.00
2024-01-27T03:54:58.718Z,100.00
2024-01-27T03:57:26.279Z,100.00
2024-01-27T03:59:53.725Z,100.00
2024-01-27T04:02:21.206Z,100.00
2024-01-27T04:04:49.752Z,100.00
2024-01-27T04:07:17.410Z,100.00
2024-01-27T04:09:44.812Z,100.00
2024-01-27T04:12:12.275Z,100.00
2024-01-27T04:14:39.569Z,100.00
2024-01-27T04:17:07.164Z,100.00
2024-01-27T04:19:34.551Z,100.00
2024-01-27T04:22:02.101Z,100.00
2024-01-27T04:24:29.388Z,100.00
2024-01-27T04:26:56.793Z,100.00
2024-01-27T04:29:24.224Z,100.00
2024-01-27T04:31:51.557Z,100.00
2024-01-27T04:34:19.148Z,100.00
2024-01-27T04:36:46.656Z,100.00
2024-01-27T04:39:15.119Z,100.00
2024-01-27T04:41:45.648Z,100.00
2024-01-27T04:44:13.205Z,100.00
2024-01-27T04:46:40.475Z,100.00
2024-01-27T04:49:09.092Z,100.00
2024-01-27T04:51:36.503Z,100.00
2024-01-27T04:54:04.434Z,100.00
2024-01-27T04:56:31.689Z,100.00
2024-01-27T04:58:59.007Z,100.00
2024-01-27T05:01:26.376Z,100.00
2024-01-27T05:03:53.900Z,100.00
2024-01-27T05:06:21.442Z,100.00
2024-01-27T05:08:48.748Z,100.00
2024-01-27T05:11:18.915Z,100.00
2024-01-27T05:13:46.276Z,100.00
2024-01-27T05:16:13.494Z,100.00
2024-01-27T05:18:41.030Z,100.00
2024-01-27T05:21:08.446Z,100.00
2024-01-27T05:23:35.956Z,100.00
2024-01-27T05:26:03.251Z,100.00
2024-01-27T05:28:30.697Z,100.00
2024-01-27T05:30:57.919Z,100.00
2024-01-27T05:33:25.540Z,100.00
2024-01-27T05:35:52.860Z,100.00
2024-01-27T05:38:20.126Z,100.00
2024-01-27T05:40:47.558Z,100.00
2024-01-27T05:43:14.887Z,100.00
2024-01-27T05:45:42.244Z,100.00
2024-01-27T05:48:09.671Z,100.00
2024-01-27T05:50:37.333Z,100.00
2024-01-27T05:53:05.059Z,100.00
2024-01-27T05:55:32.497Z,100.00
2024-01-27T05:57:59.886Z,100.00
2024-01-27T06:00:27.192Z,100.00
2024-01-27T06:02:54.800Z,100.00
2024-01-27T06:05:22.026Z,100.00
2024-01-27T06:07:50.549Z,100.00
2024-01-27T06:10:19.759Z,100.00
2024-01-27T06:12:47.229Z,100.00
2024-01-27T06:15:16.949Z,100.00
2024-01-27T06:17:44.331Z,100.00
2024-01-27T06:20:12.572Z,100.00
2024-01-27T06:22:40.357Z,100.00
2024-01-27T06:25:09.507Z,100.00
2024-01-27T06:27:36.837Z,100.00
2024-01-27T06:30:04.403Z,100.00
2024-01-27T06:32:31.835Z,100.00
2024-01-27T06:34:59.153Z,100.00
2024-01-27T06:37:26.831Z,100.00
2024-01-27T06:39:55.387Z,100.00
2024-01-27T06:42:22.816Z,100.00
2024-01-27T06:44:50.134Z,100.00
2024-01-27T06:47:17.994Z,100.00
2024-01-27T06:49:45.343Z,100.00
2024-01-27T06:52:13.680Z,100.00
2024-01-27T06:54:45.438Z,100.00
2024-01-27T06:57:23.316Z,100.00
2024-01-27T06:59:53.962Z,100.00
2024-01-27T07:02:30.339Z,100.00
2024-01-27T07:04:57.995Z,100.00
2024-01-27T07:07:29.245Z,100.00
2024-01-27T07:09:57.173Z,100.00
2024-01-27T07:12:24.682Z,100.00
2024-01-27T07:14:57.996Z,100.00
2024-01-27T07:17:25.803Z,100.00
2024-01-27T07:19:53.230Z,100.00
2024-01-27T07:22:20.639Z,100.00
2024-01-27T07:24:48.054Z,100.00
2024-01-27T07:27:15.359Z,100.00
2024-01-27T07:29:42.685Z,100.00
2024-01-27T07:32:14.740Z,100.00
2024-01-27T07:34:44.113Z,100.00
2024-01-27T07:37:11.431Z,100.00
2024-01-27T07:39:39.105Z,100.00
2024-01-27T07:42:06.661Z,100.00
2024-01-27T07:44:34.107Z,99.82
2024-01-27T07:47:01.320Z,100.00
2024-01-27T07:49:30.021Z,100.00
2024-01-27T07:51:57.457Z,100.00
2024-01-27T07:54:24.984Z,100.00
2024-01-27T07:56:53.138Z,99.99
2024-01-27T07:59:20.881Z,99.64
2024-01-27T08:01:48.260Z,98.72
2024-01-27T08:04:17.138Z,98.28
2024-01-27T08:06:51.919Z,97.50
2024-01-27T08:09:20.043Z,96.75
2024-01-27T08:11:53.075Z,97.06
2024-01-27T08:14:21.585Z,96.27
2024-01-27T08:16:48.925Z,96.41
2024-01-27T08:19:22.084Z,95.90
2024-01-27T08:21:49.884Z,96.26
2024-01-27T08:24:17.674Z,94.50
2024-01-27T08:26:47.832Z,94.94
2024-01-27T08:29:15.723Z,94.49
2024-01-27T08:31:45.313Z,93.90
2024-01-27T08:34:14.388Z,93.15
2024-01-27T08:36:42.056Z,93.01
2024-01-27T08:39:10.281Z,92.12
2024-01-27T08:41:37.787Z,91.61
2024-01-27T08:44:05.328Z,91.61
2024-01-27T08:46:32.751Z,91.24
2024-01-27T08:49:00.138Z,90.83
2024-01-27T08:51:27.635Z,90.99
2024-01-27T08:53:54.935Z,90.90
2024-01-27T08:56:22.396Z,90.66
2024-01-27T08:58:49.956Z,91.43
2024-01-27T09:01:18.898Z,91.31
2024-01-27T09:03:46.448Z,91.48
2024-01-27T09:06:14.204Z,90.76
2024-01-27T09:08:41.561Z,90.51
2024-01-27T09:11:10.590Z,90.55
2024-01-27T09:13:37.923Z,89.78
2024-01-27T09:16:05.396Z,90.20
2024-01-27T09:18:32.941Z,89.43
2024-01-27T09:21:00.388Z,89.15
2024-01-27T09:23:27.645Z,88.96
2024-01-27T09:25:55.060Z,88.92
2024-01-27T09:28:22.254Z,87.74
2024-01-27T09:30:49.695Z,88.13
2024-01-27T09:33:18.926Z,87.81
2024-01-27T09:35:47.006Z,87.59
2024-01-27T09:38:15.810Z,87.28
2024-01-27T09:40:43.190Z,88.65
2024-01-27T09:43:16.448Z,88.92
2024-01-27T09:45:43.963Z,89.92
2024-01-27T09:48:13.691Z,90.42
2024-01-27T09:50:46.814Z,91.46
2024-01-27T09:53:14.054Z,91.35
2024-01-27T09:55:41.648Z,89.83
2024-01-27T09:58:10.149Z,89.64
2024-01-27T10:00:38.234Z,90.65
2024-01-27T10:03:07.545Z,90.58
2024-01-27T10:05:36.180Z,90.97
2024-01-27T10:08:07.195Z,93.06
2024-01-27T10:10:34.478Z,93.76
2024-01-27T10:13:05.212Z,94.07
2024-01-27T10:15:32.791Z,92.74
2024-01-27T10:18:09.956Z,90.71
2024-01-27T10:20:37.702Z,89.62
2024-01-27T10:23:14.572Z,88.50
2024-01-27T10:25:43.236Z,89.04
2024-01-27T10:28:11.121Z,90.25
2024-01-27T10:30:39.657Z,89.62
2024-01-27T10:36:00.279Z,90.57
2024-01-27T10:38:37.844Z,90.12
2024-01-27T10:41:11.639Z,90.37
2024-01-27T10:43:40.756Z,90.37
2024-01-27T10:46:09.800Z,89.25
2024-01-27T10:48:37.983Z,89.08
2024-01-27T10:51:09.611Z,89.59
2024-01-27T10:53:38.660Z,89.13
2024-01-27T10:56:10.908Z,89.36
2024-01-27T10:58:43.600Z,89.50
2024-01-27T11:01:13.541Z,87.49
2024-01-27T11:03:42.784Z,88.93
2024-01-27T11:06:13.110Z,88.47
2024-01-27T11:08:43.923Z,90.58
2024-01-27T11:11:12.838Z,91.27
2024-01-27T11:13:40.975Z,92.32
2024-01-27T11:16:18.511Z,91.83
2024-01-27T11:18:46.945Z,90.78
2024-01-27T11:21:18.356Z,90.48
2024-01-27T11:23:49.168Z,91.14
2024-01-27T11:26:22.999Z,91.57
2024-01-27T11:28:51.142Z,90.50
2024-01-27T11:31:21.700Z,91.28
2024-01-27T11:33:54.381Z,90.62
2024-01-27T11:36:26.593Z,90.58
2024-01-27T11:38:55.521Z,91.73
2024-01-27T11:41:27.743Z,91.37
2024-01-27T11:44:03.686Z,92.16
2024-01-27T11:46:31.285Z,91.86
2024-01-27T11:48:59.093Z,91.57
2024-01-27T11:51:28.211Z,91.45
2024-01-27T11:53:55.740Z,91.64
2024-01-27T11:56:23.072Z,91.97
2024-01-27T11:58:51.966Z,92.01
2024-01-27T12:01:19.656Z,92.33
2024-01-27T12:03:47.620Z,92.40
2024-01-27T12:06:15.884Z,92.36
2024-01-27T12:08:49.606Z,90.79
2024-01-27T12:11:21.025Z,90.88
2024-01-27T12:13:53.651Z,90.43
2024-01-27T12:16:23.475Z,90.67
2024-01-27T12:18:56.178Z,89.88
2024-01-27T12:21:25.530Z,89.74
2024-01-27T12:23:54.639Z,88.28
2024-01-27T12:26:31.481Z,87.46
2024-01-27T12:28:59.923Z,87.57
2024-01-27T12:31:29.497Z,86.81
2024-01-27T12:34:01.102Z,86.06
2024-01-27T12:36:28.936Z,85.27
2024-01-27T12:38:56.812Z,85.04
2024-01-27T12:41:25.965Z,84.11
2024-01-27T12:43:54.135Z,85.68
2024-01-27T12:46:21.790Z,83.82
2024-01-27T12:48:49.940Z,84.47
2024-01-27T12:51:17.493Z,84.03
2024-01-27T12:53:45.862Z,83.33
2024-01-27T12:56:14.915Z,81.25
2024-01-27T12:58:43.372Z,79.06
2024-01-27T13:01:10.966Z,80.79
2024-01-27T13:03:40.252Z,77.17
2024-01-27T13:06:09.672Z,78.15
2024-01-27T13:08:36.993Z,77.87
2024-01-27T13:11:05.042Z,78.27
2024-01-27T13:13:32.362Z,79.21
2024-01-27T13:15:59.873Z,79.25
2024-01-27T13:18:27.247Z,77.80
2024-01-27T13:20:54.894Z,79.82
2024-01-27T13:23:22.190Z,80.82
2024-01-27T13:26:02.024Z,78.67
2024-01-27T13:28:36.009Z,78.52
2024-01-27T13:31:03.371Z,79.23
2024-01-27T13:33:31.011Z,80.40
2024-01-27T13:36:01.137Z,79.01
2024-01-27T13:38:28.998Z,79.77
2024-01-27T13:40:56.545Z,80.60
2024-01-27T13:43:24.105Z,80.10
2024-01-27T13:45:52.816Z,81.38
2024-01-27T13:48:20.499Z,82.15
2024-01-27T13:50:48.114Z,84.35
2024-01-27T13:53:15.409Z,83.97
2024-01-27T13:55:45.296Z,83.87
2024-01-27T13:58:12.722Z,85.79
2024-01-27T14:00:40.393Z,85.45
2024-01-27T14:03:08.413Z,86.49
2024-01-27T14:05:35.796Z,85.66
2024-01-27T14:08:03.493Z,84.14
2024-01-27T14:10:30.938Z,84.45
2024-01-27T14:12:58.603Z,85.15
2024-01-27T14:15:26.075Z,85.71
2024-01-27T14:17:53.704Z,85.89
2024-01-27T14:20:21.834Z,86.24
2024-01-27T14:22:49.213Z,86.95
2024-01-27T14:25:16.861Z,87.35
2024-01-27T14:27:44.595Z,87.62
2024-01-27T14:30:12.943Z,88.53
2024-01-27T14:32:42.102Z,88.88
2024-01-27T14:35:09.746Z,89.11
2024-01-27T14:37:39.142Z,89.91
2024-01-27T14:40:07.704Z,90.97
2024-01-27T14:42:37.427Z,90.07
2024-01-27T14:45:05.202Z,90.44
2024-01-27T14:47:32.617Z,90.83
2024-01-27T14:50:00.325Z,89.56
2024-01-27T14:52:28.078Z,89.61
2024-01-27T14:54:55.696Z,90.13
2024-01-27T14:57:23.324Z,88.58
2024-01-27T14:59:50.750Z,88.95
2024-01-27T15:02:22.516Z,89.44
2024-01-27T15:04:51.833Z,88.29
2024-01-27T15:07:22.771Z,87.43
2024-01-27T15:09:51.450Z,87.26
2024-01-27T15:12:19.113Z,87.83
2024-01-27T15:14:46.586Z,88.38
2024-01-27T15:17:14.106Z,87.74
2024-01-27T15:19:43.064Z,87.96
2024-01-27T15:22:11.937Z,87.39
2024-01-27T15:24:41.019Z,87.20
2024-01-27T15:27:11.887Z,87.20
2024-01-27T15:29:40.381Z,86.88
2024-01-27T15:32:08.771Z,87.17
2024-01-27T15:34:36.224Z,87.57
2024-01-27T15:37:05.028Z,87.46
2024-01-27T15:39:34.815Z,87.70
2024-01-27T15:42:05.500Z,88.00
2024-01-27T15:44:33.324Z,87.98
2024-01-27T15:47:01.532Z,88.22
2024-01-27T15:49:30.046Z,89.10
2024-01-27T15:51:57.615Z,89.80
2024-01-27T15:54:25.134Z,90.34
2024-01-27T15:56:52.522Z,91.04
2024-01-27T15:59:20.057Z,91.06
2024-01-27T16:01:47.779Z,91.06
2024-01-27T16:04:17.758Z,91.13
2024-01-27T16:06:46.555Z,91.31
2024-01-27T16:09:14.420Z,91.65
2024-01-27T16:11:41.885Z,92.05
2024-01-27T16:14:09.927Z,92.05
2024-01-27T16:16:38.747Z,92.50
2024-01-27T16:19:06.311Z,92.91
2024-01-27T16:21:34.178Z,93.48
2024-01-27T16:24:01.660Z,94.10
2024-01-27T16:26:30.420Z,94.00
2024-01-27T16:28:57.823Z,94.23
2024-01-27T16:31:25.275Z,94.79
2024-01-27T16:33:53.487Z,94.82
2024-01-27T16:36:21.121Z,94.83
2024-01-27T16:38:48.477Z,95.33
2024-01-27T16:41:16.539Z,95.51
2024-01-27T16:43:44.003Z,95.35
2024-01-27T16:46:11.934Z,95.72
2024-01-27T16:48:41.651Z,95.75
2024-01-27T16:51:09.327Z,95.71
2024-01-27T16:53:36.868Z,96.03
2024-01-27T16:56:06.256Z,95.78
2024-01-27T16:58:33.632Z,95.55
2024-01-27T17:01:01.241Z,95.80
2024-01-27T17:03:28.536Z,95.74
2024-01-27T17:05:56.120Z,95.71
2024-01-27T17:08:23.432Z,95.60
2024-01-27T17:10:50.706Z,94.37
2024-01-27T17:13:18.224Z,92.21
2024-01-27T17:15:47.076Z,92.04
2024-01-27T17:18:15.913Z,90.97
2024-01-27T17:20:45.395Z,90.00
2024-01-27T17:23:13.137Z,88.58
2024-01-27T17:25:43.492Z,88.02
2024-01-27T17:28:11.712Z,87.43
2024-01-27T17:30:39.255Z,87.50
2024-01-27T17:33:07.244Z,87.75
2024-01-27T17:35:34.827Z,88.02
2024-01-27T17:38:03.205Z,88.13
2024-01-27T17:40:31.151Z,88.75
2024-01-27T17:42:59.582Z,89.13
2024-01-27T17:45:27.009Z,89.64
2024-01-27T17:47:56.280Z,90.37
2024-01-27T17:50:23.971Z,90.92
2024-01-27T17:52:52.776Z,91.48
2024-01-27T17:55:21.085Z,92.13
2024-01-27T17:57:48.518Z,93.02
2024-01-27T18:00:19.666Z,93.92
2024-01-27T18:02:48.395Z,93.94
2024-01-27T18:05:15.933Z,94.72
2024-01-27T18:07:43.640Z,95.20
2024-01-27T18:10:11.149Z,95.71
2024-01-27T18:12:42.738Z,95.90
2024-01-27T18:15:11.408Z,96.29
2024-01-27T18:17:38.895Z,96.79
2024-01-27T18:20:07.024Z,96.90
2024-01-27T18:22:34.362Z,97.29
2024-01-27T18:25:01.961Z,97.70
2024-01-27T18:27:29.267Z,97.97
2024-01-27T18:29:57.069Z,98.59
2024-01-27T18:32:24.487Z,98.77
2024-01-27T18:34:53.496Z,98.80
2024-01-27T18:37:21.196Z,98.92
2024-01-27T18:39:48.763Z,99.10
2024-01-27T18:42:16.162Z,99.53
2024-01-27T18:44:44.346Z,99.71
2024-01-27T18:47:11.788Z,99.99
2024-01-27T18:49:39.305Z,100.00
2024-01-27T18:52:07.135Z,100.00
2024-01-27T18:54:34.401Z,100.00
2024-01-27T18:57:03.258Z,100.00
2024-01-27T18:59:31.252Z,100.00
2024-01-27T19:01:58.703Z,100.00
2024-01-27T19:04:27.059Z,100.00
2024-01-27T19:06:54.508Z,100.00
2024-01-27T19:09:22.036Z,100.00
2024-01-27T19:11:49.329Z,100.00
2024-01-27T19:14:17.662Z,100.00
2024-01-27T19:16:45.589Z,98.84
2024-01-27T19:19:13.109Z,97.90
2024-01-27T19:21:40.703Z,97.30
2024-01-27T19:24:08.074Z,97.26
2024-01-27T19:26:36.838Z,97.21
2024-01-27T19:29:04.166Z,96.76
2024-01-27T19:31:32.892Z,96.86
2024-01-27T19:34:00.431Z,97.12
2024-01-27T19:36:27.955Z,97.42
2024-01-27T19:38:55.283Z,97.19
2024-01-27T19:41:22.770Z,97.40
2024-01-27T19:43:50.110Z,97.65
2024-01-27T19:46:17.908Z,98.08
2024-01-27T19:48:45.517Z,98.93
2024-01-27T19:51:13.381Z,99.25
2024-01-27T19:53:41.011Z,100.00
2024-01-27T19:56:13.248Z,100.00
2024-01-27T19:58:42.355Z,100.00
2024-01-27T20:01:09.962Z,100.00
2024-01-27T20:03:37.456Z,100.00
2024-01-27T20:06:05.858Z,100.00
2024-01-27T20:08:33.621Z,100.00
2024-01-27T20:11:01.115Z,100.00
2024-01-27T20:13:28.594Z,100.00
2024-01-27T20:15:56.368Z,100.00
2024-01-27T20:18:23.847Z,100.00
2024-01-27T20:20:54.457Z,100.00
2024-01-27T20:23:22.041Z,100.00
2024-01-27T20:25:49.976Z,100.00
2024-01-27T20:28:17.349Z,100.00
2024-01-27T20:30:45.799Z,100.00
2024-01-27T20:33:13.573Z,100.00
2024-01-27T20:35:41.065Z,100.00
2024-01-27T20:38:08.502Z,100.00
2024-01-27T20:40:35.880Z,100.00
2024-01-27T20:43:06.849Z,100.00
2024-01-27T20:45:35.138Z,100.00
2024-01-27T20:48:02.744Z,100.00
2024-01-27T20:50:30.140Z,100.00
2024-01-27T20:52:57.788Z,100.00
2024-01-27T20:55:26.213Z,100.00
2024-01-27T20:57:53.536Z,100.00
2024-01-27T21:00:20.871Z,100.00
2024-01-27T21:02:48.124Z,100.00
2024-01-27T21:05:15.665Z,100.00
2024-01-27T21:07:44.769Z,100.00
2024-01-27T21:10:12.286Z,100.00
2024-01-27T21:12:40.462Z,100.00
2024-01-27T21:15:08.047Z,100.00
2024-01-27T21:17:35.490Z,100.00
2024-01-27T21:20:04.402Z,100.00
2024-01-27T21:22:34.277Z,100.00
2024-01-27T21:25:01.656Z,100.00
2024-01-27T21:27:29.876Z,100.00
2024-01-27T21:29:57.524Z,100.00
2024-01-27T21:32:24.960Z,100.00
2024-01-27T21:34:54.584Z,100.00
2024-01-27T21:37:21.971Z,100.00
2024-01-27T21:39:49.499Z,100.00
2024-01-27T21:42:17.168Z,100.00
2024-01-27T21:44:45.238Z,100.00
2024-01-27T21:47:15.197Z,100.00
2024-01-27T21:49:42.950Z,100.00
2024-01-27T21:52:10.266Z,100.00
2024-01-27T21:54:41.753Z,100.00
2024-01-27T21:57:09.671Z,100.00
2024-01-27T21:59:37.089Z,100.00
2024-01-27T22:02:04.740Z,100.00
2024-01-27T22:04:32.203Z,100.00
2024-01-27T22:06:59.920Z,100.00
2024-01-27T22:09:27.511Z,100.00
2024-01-27T22:11:55.712Z,100.00
2024-01-27T22:14:26.507Z,100.00
2024-01-27T22:16:53.832Z,100.00
2024-01-27T22:19:21.309Z,100.00
2024-01-27T22:21:54.169Z,100.00
2024-01-27T22:24:23.111Z,100.00
2024-01-27T22:26:50.710Z,100.00
2024-01-27T22:29:18.195Z,100.00
2024-01-27T22:31:45.486Z,100.00
2024-01-27T22:34:12.856Z,100.00
2024-01-27T22:36:40.437Z,100.00
2024-01-27T22:39:10.686Z,100.00
2024-01-27T22:41:38.100Z,100.00
2024-01-27T22:44:05.434Z,100.00
2024-01-27T22:46:32.930Z,100.00
2024-01-27T22:49:00.565Z,100.00
2024-01-27T22:51:28.031Z,100.00
2024-01-27T22:53:55.281Z,100.00
2024-01-27T22:56:22.830Z,100.00
2024-01-27T22:58:50.162Z,100.00
2024-01-27T23:01:17.902Z,100.00
2024-01-27T23:03:45.505Z,100.00
2024-01-27T23:06:14.334Z,100.00
2024-01-27T23:08:42.809Z,100.00
2024-01-27T23:11:11.291Z,100.00
2024-01-27T23:13:39.608Z,100.00
2024-01-27T23:16:08.756Z,100.00
2024-01-27T23:18:37.433Z,100.00
2024-01-27T23:21:05.121Z,100.00
2024-01-27T23:23:32.407Z,100.00
2024-01-27T23:25:59.917Z,100.00
2024-01-27T23:28:27.267Z,100.00
2024-01-27T23:30:55.335Z,100.00
2024-01-27T23:33:24.318Z,100.00
2024-01-27T23:35:51.856Z,100.00
2024-01-27T23:38:21.942Z,100.00
2024-01-27T23:40:50.321Z,100.00
2024-01-27T23:43:18.887Z,100.00
2024-01-27T23:45:46.401Z,100.00
2024-01-27T23:48:14.470Z,100.00
2024-01-27T23:50:41.887Z,100.00
2024-01-27T23:53:10.481Z,100.00
2024-01-27T23:55:50.117Z,100.00
2024-01-27T23:58:18.263Z,100.00
